KCDW

Essex County Airport

Airport
ICAO code
KCDW
IATA Code
CDW
Summary
ICAO Region
NAM
ICAO Territory
Location

Fairfield, New Jersey

Serving
Caldwell
Elevation
173 ft
Coordinates
40° 52' 29" N , 74° 16' 52" W
KCC
Airport WX
Tropical Revolving Storm
Metar
KCDW 201753Z 20007KT 10SM CLR 28/16 A3008 RMK AO2 SLP192 T02830161 10289 20211 57009

Essex County Airport is a public use airport located 2 nm north of the central business district of Caldwell, in Essex County, New Jersey, USA.

 

Airport map

Aerial View

SKYbrary Partners:

Safety knowledge contributed by: